Aérodrome :
LOGIN :

S'inscrire | Disclaimer

   EN    FR    IT 

 










Légende :    VFR   VFR Marginal   IFR   IFR Intensif   IFR Très Intensif
Visi : 
Plafond : 
>= 8 km
>= 3000ft
5 à 8 km
1000 à 3000 ft
1500m à 5 km
500 à 1000 ft
800 à 1500m
200 à 500 ft
< 800m
< 200 ft
Symboles :   Orages  Brouillard  Fortes neiges  Fortes précipitations  Vent > 20 kt
SIGMETs :   Divers  Orages  Givrage  Turbulence  Onde Orograph.  Cendres Volcan.






- Altitude de l'aérodrome : 93 ft
- Code IATA : XRY


LEJR - Jerez

DERNIER METAR :
  • 260400Z AUTO 15010KT 090V190 9999 FEW043 SCT066 13/11 Q1006

METARs EXPIRÉS :
  • 260330Z AUTO 15009KT 100V190 CAVOK 13/11 Q1007
  • 260300Z AUTO 15009KT 090V170 9999 SCT056 BKN067 13/11 Q1007
  • 260230Z AUTO 15007KT 110V190 CAVOK 12/12 Q1008
  • 260200Z AUTO 15008KT 100V190 CAVOK 12/12 Q1008
  • 260130Z AUTO 14009KT 090V170 9999 -RA FEW056 12/12 Q1008

TAF TAF LEJR
Valide du 26 à 00h jusqu'au 27 à 00h UTC


252300Z 2600/2624 18009KT 9999 FEW020 BKN040 TX16/2614Z TN07/2605Z
TEMPO 2600/2608 4000 SHRA FEW030CB
PROB30
TEMPO 2608/2612 4000 RA BR BKN010



MET'MAP, la Météo Aéronautique d'un coup d'oeil ! - Copyright ORBIFLY Décembre 2007 - Disclaimer

ORBIFLY MET'MAP TEAM :

Programmation & Développement : Alexandra Zaïnal
Sur une idée originale de : Baudouin d'Aumeries
Assistance à la programmation : Marc-Olivier Méhu
Soutien technique & logistique : Manuel Goepfert

Contact : metmap@orbifly.com




SOURCES & CREDITS :

   NOAA